Woody Point, Canada
Current Conditions -  °F | °C
As of 7:00 PM on Monday 24 Nov 2014 (Local Time) from CYDF Reporting Station
Overcast Overcast  
Wind Chill: 28°   Ceiling: 11000
Heat Index: 28°   Visibility: 15mi
Dew Point: 23°   Wind: 3mph
Humidity: 80%   Direction: 60°ENE
Pressure: 30.23"   Gusts: NA
Location:  49.5°N, 57.93°W
Report Text: CYDF 242200Z 06003KT 040V110 15SM FEW030 OVC110 M02/M05 A3023 RMK SC1AC7 SLP237
Loading
Personal Weather Stations






























Interactive Weather Map New forecast layout! Learn more

10-Day Weather Forecast

Advertisements
Track Severe Weather on mobile